Time;durP1;ratioP1;P1;durP2;ratioP2;P2;SDS_P1;SDS_P2;PMS_P1;PMS_P2;Temp;Humidity;BMP_temperature;BMP_pressure;BME280_temperature;BME280_humidity;BME280_pressure;Samples;Min_cycle;Max_cycle;Signal;HPM_P1;HPM_P2
2022/01/18 00:02:02;;;;;;;42.50;18.60;;;6.80;99.90;;;;;;4944296;28;113089;-62
2022/01/18 00:04:28;;;;;;;39.10;19.27;;;6.80;99.90;;;;;;4946252;28;112555;-68
2022/01/18 00:06:54;;;;;;;42.38;20.60;;;6.70;99.90;;;;;;4945535;28;112460;-66
2022/01/18 00:09:23;;;;;;;35.67;19.85;;;6.60;99.90;;;;;;4945316;28;113069;-67
2022/01/18 00:12:14;;;;;;;33.33;18.63;;;6.60;99.90;;;;;;4944986;28;114814;-66
2022/01/18 00:14:43;;;;;;;46.35;21.42;;;6.60;99.90;;;;;;4946004;28;112660;-66
2022/01/18 00:17:19;;;;;;;43.00;21.70;;;6.50;99.90;;;;;;4962531;22;112686;-67
2022/01/18 00:19:54;;;;;;;42.38;20.98;;;6.40;99.90;;;;;;4968105;28;115228;-70
2022/01/18 00:22:20;;;;;;;41.38;21.48;;;6.40;99.90;;;;;;4986504;28;113379;-69
2022/01/18 00:24:54;;;;;;;40.53;21.58;;;6.40;99.90;;;;;;4968639;28;112321;-67
2022/01/18 00:27:20;;;;;;;47.95;22.85;;;6.30;99.90;;;;;;4965070;28;112434;-69
2022/01/18 00:30:22;;;;;;;50.35;24.15;;;6.40;99.90;;;;;;4964358;28;112872;-69
2022/01/18 00:35:00;;;;;;;40.72;24.88;;;6.30;99.90;;;;;;4965375;28;112380;-69
2022/01/18 00:37:33;;;;;;;52.97;26.63;;;6.30;99.90;;;;;;4984167;28;112561;-69
2022/01/18 00:40:00;;;;;;;49.25;25.48;;;6.30;99.90;;;;;;4967584;28;114333;-68
2022/01/18 00:42:26;;;;;;;45.15;24.98;;;6.20;99.90;;;;;;4984072;28;114843;-68
2022/01/18 00:44:52;;;;;;;42.72;23.60;;;6.20;99.90;;;;;;4984736;28;112468;-69
2022/01/18 00:47:18;;;;;;;47.38;24.83;;;6.10;99.90;;;;;;4985064;28;112309;-69
2022/01/18 00:49:46;;;;;;;40.78;21.55;;;6.10;99.90;;;;;;4983912;28;115116;-67
2022/01/18 00:52:14;;;;;;;40.45;22.80;;;6.00;99.90;;;;;;4982974;22;115225;-59
2022/01/18 00:54:44;;;;;;;41.88;22.67;;;5.90;99.90;;;;;;4959826;28;112918;-61
2022/01/18 00:57:10;;;;;;;43.97;22.38;;;5.80;99.90;;;;;;4966599;28;112618;-67
2022/01/18 00:59:36;;;;;;;40.20;22.83;;;5.80;99.90;;;;;;4963165;28;113371;-67
2022/01/18 01:02:02;;;;;;;40.80;22.65;;;5.70;99.90;;;;;;4946139;28;112951;-66
2022/01/18 01:04:32;;;;;;;35.50;21.50;;;5.70;99.90;;;;;;4930068;28;113408;-67
2022/01/18 01:06:58;;;;;;;39.60;22.67;;;5.70;99.90;;;;;;4964553;28;112483;-67
2022/01/18 01:09:24;;;;;;;38.88;22.85;;;5.70;99.90;;;;;;4947900;28;113259;-67
2022/01/18 01:11:50;;;;;;;40.78;23.52;;;5.60;99.90;;;;;;4983630;28;113596;-63
2022/01/18 01:14:20;;;;;;;42.17;23.08;;;5.60;99.90;;;;;;4966649;28;114177;-67
2022/01/18 01:35:31;;;;;;;44.42;22.10;;;5.60;99.90;;;;;;4984462;28;112993;-65
2022/01/18 01:43:30;;;;;;;40.03;22.83;;;5.60;99.90;;;;;;4970516;28;112921;-67
2022/01/18 01:45:58;;;;;;;47.80;23.70;;;5.70;99.90;;;;;;4984371;28;112644;-68
2022/01/18 01:48:25;;;;;;;49.58;23.95;;;5.70;99.90;;;;;;4965727;28;112497;-68
2022/01/18 01:51:00;;;;;;;45.70;20.98;;;5.70;99.90;;;;;;4963751;28;113018;-68
2022/01/18 01:53:27;;;;;;;44.70;25.17;;;5.70;99.90;;;;;;4963585;28;113435;-69
2022/01/18 01:55:53;;;;;;;44.83;25.23;;;5.70;99.90;;;;;;4963801;28;112644;-68
2022/01/18 01:58:23;;;;;;;43.70;25.42;;;5.70;99.90;;;;;;4964126;28;112475;-69
2022/01/18 02:00:52;;;;;;;42.55;24.73;;;5.70;99.90;;;;;;4944280;28;113489;-66
2022/01/18 02:03:19;;;;;;;49.23;25.63;;;5.70;99.90;;;;;;4943617;28;112913;-68
2022/01/18 02:05:46;;;;;;;44.10;25.67;;;5.70;99.90;;;;;;4944265;28;112554;-69
2022/01/18 02:08:13;;;;;;;53.15;27.10;;;5.60;99.90;;;;;;4926239;28;112779;-68
2022/01/18 02:10:41;;;;;;;43.05;24.02;;;5.60;99.90;;;;;;4927048;28;115471;-68
2022/01/18 02:13:08;;;;;;;46.00;25.05;;;5.60;99.90;;;;;;4943623;28;113541;-67
2022/01/18 02:15:43;;;;;;;46.03;25.27;;;5.60;99.90;;;;;;4895591;28;113542;-66
2022/01/18 02:23:39;;;;;;;50.10;26.00;;;5.50;99.90;;;;;;4942716;28;112450;-68
2022/01/18 02:26:04;;;;;;;50.83;25.77;;;5.50;99.90;;;;;;4944168;28;112447;-67
2022/01/18 02:28:31;;;;;;;50.35;27.20;;;5.50;99.90;;;;;;4944782;28;112417;-69
2022/01/18 02:30:57;;;;;;;51.40;26.23;;;5.50;99.90;;;;;;4943886;28;113467;-68
2022/01/18 02:33:23;;;;;;;52.22;27.65;;;5.40;99.90;;;;;;4943111;28;113608;-68
2022/01/18 02:35:49;;;;;;;49.15;26.38;;;5.40;99.90;;;;;;4959661;28;113199;-66
2022/01/18 02:38:16;;;;;;;55.13;26.25;;;5.40;99.90;;;;;;4983332;28;112876;-68
2022/01/18 02:40:44;;;;;;;59.97;27.00;;;5.30;99.90;;;;;;4964760;28;114288;-67
2022/01/18 02:45:57;;;;;;;49.42;24.80;;;5.30;99.90;;;;;;4984120;28;112454;-70
2022/01/18 02:48:24;;;;;;;42.83;25.65;;;5.30;99.90;;;;;;4983321;28;112770;-68
2022/01/18 02:50:50;;;;;;;45.95;25.33;;;5.20;99.90;;;;;;4983317;28;113079;-68
2022/01/18 02:53:19;;;;;;;42.72;25.02;;;5.20;99.90;;;;;;4982785;28;113928;-70
2022/01/18 02:55:51;;;;;;;48.25;25.40;;;5.20;99.90;;;;;;4986695;28;112275;-69
2022/01/18 02:58:25;;;;;;;45.40;25.08;;;5.20;99.90;;;;;;4968599;28;112713;-67
2022/01/18 03:03:36;;;;;;;52.85;27.02;;;5.20;99.90;;;;;;4969202;28;112889;-68
2022/01/18 03:06:04;;;;;;;49.67;27.17;;;5.20;99.90;;;;;;4986385;28;112388;-67
2022/01/18 03:08:30;;;;;;;48.15;27.45;;;5.20;99.90;;;;;;4987011;28;112413;-69
2022/01/18 03:10:57;;;;;;;47.63;24.88;;;5.10;99.90;;;;;;4985097;28;114383;-68
2022/01/18 03:13:23;;;;;;;47.08;25.17;;;5.20;99.90;;;;;;4985206;28;112557;-68
2022/01/18 03:15:49;;;;;;;44.47;25.52;;;5.20;99.90;;;;;;4986515;28;112359;-68
2022/01/18 03:18:15;;;;;;;50.42;24.90;;;5.10;99.90;;;;;;4986217;28;112656;-69
2022/01/18 03:20:41;;;;;;;47.83;25.45;;;5.10;99.90;;;;;;4985443;28;113426;-68
2022/01/18 03:23:14;;;;;;;41.72;24.80;;;5.10;99.90;;;;;;4984600;28;112899;-68
2022/01/18 03:25:51;;;;;;;44.67;23.35;;;5.10;99.90;;;;;;4986320;28;112411;-68
2022/01/18 03:28:18;;;;;;;50.85;24.98;;;5.10;99.90;;;;;;4953472;28;112554;-67
2022/01/18 03:30:47;;;;;;;48.45;24.50;;;5.10;99.90;;;;;;4984619;28;113713;-68
2022/01/18 03:33:16;;;;;;;51.33;24.65;;;5.10;99.90;;;;;;4966988;28;114530;-67
2022/01/18 03:35:43;;;;;;;47.13;22.67;;;5.10;99.90;;;;;;4978900;28;112547;-68
2022/01/18 03:38:11;;;;;;;43.72;22.63;;;5.10;99.90;;;;;;4966169;28;112742;-68
2022/01/18 03:40:37;;;;;;;38.83;21.63;;;5.10;99.90;;;;;;4965035;28;114583;-67
2022/01/18 03:43:06;;;;;;;38.28;22.00;;;5.10;99.90;;;;;;4965848;28;112954;-69
2022/01/18 03:45:43;;;;;;;40.35;21.83;;;5.10;99.90;;;;;;4966677;28;112841;-68
2022/01/18 03:48:26;;;;;;;40.55;20.45;;;5.10;99.90;;;;;;4965917;28;112615;-68
2022/01/18 03:50:52;;;;;;;38.45;19.98;;;5.10;99.90;;;;;;4947305;28;116670;-69
2022/01/18 03:53:20;;;;;;;34.80;21.15;;;5.10;99.90;;;;;;4947309;28;112596;-68
2022/01/18 03:55:46;;;;;;;43.00;19.80;;;5.10;99.90;;;;;;4948495;28;112480;-68
2022/01/18 03:58:12;;;;;;;35.75;19.33;;;5.10;99.90;;;;;;4965444;28;112431;-68
2022/01/18 04:00:38;;;;;;;40.17;18.30;;;5.10;99.90;;;;;;4946434;28;114153;-67
2022/01/18 04:03:04;;;;;;;39.13;19.58;;;5.20;99.90;;;;;;4946810;28;113197;-68
2022/01/18 04:05:30;;;;;;;39.60;19.52;;;5.20;99.90;;;;;;4947703;28;112471;-68
2022/01/18 04:07:56;;;;;;;37.67;19.17;;;5.20;99.90;;;;;;4966416;28;112509;-70
2022/01/18 04:10:22;;;;;;;31.77;17.77;;;5.20;99.90;;;;;;4964932;28;113421;-69
2022/01/18 04:12:48;;;;;;;33.95;18.55;;;5.10;99.90;;;;;;4947052;28;112699;-68
2022/01/18 04:15:23;;;;;;;29.15;17.48;;;5.20;99.90;;;;;;4965410;28;113656;-68
2022/01/18 04:18:19;;;;;;;32.58;18.27;;;5.20;99.90;;;;;;4965808;28;112928;-67
2022/01/18 04:29:02;;;;;;;31.98;16.63;;;5.20;99.90;;;;;;4914896;28;113567;-68
2022/01/18 04:31:28;;;;;;;34.35;18.10;;;5.20;99.90;;;;;;4929520;28;115227;-69
2022/01/18 04:33:54;;;;;;;32.85;17.33;;;5.20;99.90;;;;;;4964752;28;112613;-69
2022/01/18 04:36:21;;;;;;;39.65;18.38;;;5.20;99.90;;;;;;4958637;28;112463;-71
2022/01/18 04:38:47;;;;;;;34.75;19.52;;;5.20;99.90;;;;;;4984555;28;112522;-67
2022/01/18 04:41:16;;;;;;;42.10;23.80;;;5.10;99.90;;;;;;4984192;28;115113;-68
2022/01/18 04:48:58;;;;;;;36.47;20.38;;;5.10;99.90;;;;;;4985039;28;113106;-69
2022/01/18 04:51:24;;;;;;;37.53;20.83;;;5.00;99.90;;;;;;4984333;28;114513;-69
2022/01/18 04:53:54;;;;;;;37.80;22.67;;;5.00;99.90;;;;;;4966640;28;112762;-68
2022/01/18 04:57:51;;;;;;;43.03;23.45;;;5.00;99.90;;;;;;4984565;28;112459;-68
2022/01/18 04:59:16;;;;;;;59.35;26.02;;;5.00;99.90;;;;;;4984568;28;112952;-68
2022/01/18 05:01:45;;;;;;;51.55;26.70;;;5.00;99.90;;;;;;4984411;28;112991;-69
2022/01/18 05:04:12;;;;;;;58.17;24.98;;;5.00;99.90;;;;;;4983382;28;112908;-68
2022/01/18 05:06:38;;;;;;;63.17;28.45;;;5.00;99.90;;;;;;4966594;28;112655;-67
2022/01/18 05:09:08;;;;;;;60.60;27.38;;;5.00;99.90;;;;;;4986540;28;112625;-70
2022/01/18 05:11:46;;;;;;;56.05;26.08;;;5.00;99.90;;;;;;4985407;28;114708;-69
2022/01/18 05:22:58;;;;;;;42.33;19.77;;;4.90;99.90;;;;;;4984207;28;112901;-68
2022/01/18 05:24:24;;;;;;;38.47;19.50;;;4.90;99.90;;;;;;4982917;28;113632;-69
2022/01/18 05:26:50;;;;;;;41.58;20.05;;;4.90;99.90;;;;;;4983825;28;112479;-69
2022/01/18 05:29:17;;;;;;;37.08;18.25;;;4.90;99.90;;;;;;4983649;28;112381;-69
2022/01/18 05:31:43;;;;;;;46.50;20.38;;;4.90;99.90;;;;;;4983420;28;113018;-69
2022/01/18 05:34:10;;;;;;;35.13;18.42;;;4.90;99.90;;;;;;4983991;28;112909;-69
2022/01/18 05:36:36;;;;;;;36.85;17.63;;;4.90;99.90;;;;;;4969688;28;112631;-68
2022/01/18 05:39:04;;;;;;;34.35;18.02;;;4.90;99.90;;;;;;4964537;28;112419;-68
2022/01/18 05:41:30;;;;;;;31.48;16.58;;;4.90;99.90;;;;;;4963111;28;114170;-69
2022/01/18 05:43:56;;;;;;;28.67;17.48;;;4.90;99.90;;;;;;4963141;22;113625;-67
2022/01/18 05:46:24;;;;;;;35.17;17.08;;;4.90;99.90;;;;;;4980422;28;112639;-65
2022/01/18 05:48:50;;;;;;;31.35;17.23;;;4.90;99.90;;;;;;4960250;28;112554;-65
2022/01/18 05:51:16;;;;;;;39.42;17.15;;;4.90;99.90;;;;;;4963081;28;113712;-63
2022/01/18 05:53:42;;;;;;;37.90;17.05;;;4.90;99.90;;;;;;4962602;28;114534;-68
2022/01/18 05:56:11;;;;;;;34.97;17.90;;;4.90;99.90;;;;;;4946401;28;112611;-65
2022/01/18 05:58:45;;;;;;;28.42;16.95;;;4.80;99.90;;;;;;4964293;28;112636;-67
2022/01/18 06:01:13;;;;;;;30.02;17.73;;;4.80;99.90;;;;;;4965244;28;114186;-64
2022/01/18 06:06:51;;;;;;;28.42;16.17;;;4.80;99.90;;;;;;4963220;28;114486;-66
2022/01/18 06:09:11;;;;;;;27.67;16.55;;;4.80;99.90;;;;;;4964884;28;112621;-66
2022/01/18 06:11:37;;;;;;;31.83;17.17;;;4.70;99.90;;;;;;4966416;28;113580;-63
2022/01/18 06:14:03;;;;;;;33.08;18.40;;;4.70;99.90;;;;;;4948765;28;112641;-67
2022/01/18 06:16:29;;;;;;;29.05;16.00;;;4.70;99.90;;;;;;4983045;28;112364;-65
2022/01/18 06:18:55;;;;;;;35.63;17.13;;;4.70;99.90;;;;;;4983296;28;112625;-64
2022/01/18 06:21:21;;;;;;;30.17;15.95;;;4.70;99.90;;;;;;4982290;28;113556;-67
2022/01/18 06:23:47;;;;;;;32.88;17.38;;;4.70;99.90;;;;;;4982659;28;114398;-67
2022/01/18 06:26:15;;;;;;;36.08;17.48;;;4.70;99.90;;;;;;5007723;22;112715;-68
2022/01/18 06:28:42;;;;;;;34.92;17.75;;;4.70;99.90;;;;;;4945468;28;112656;-69
2022/01/18 06:31:08;;;;;;;35.05;17.33;;;4.60;99.90;;;;;;4947317;28;112977;-69
2022/01/18 06:33:33;;;;;;;34.92;16.13;;;4.60;99.90;;;;;;4946842;28;113435;-68
2022/01/18 06:35:59;;;;;;;29.27;16.77;;;4.60;99.90;;;;;;4947857;28;112476;-68
2022/01/18 06:38:25;;;;;;;31.83;15.93;;;4.60;99.90;;;;;;4947848;28;112382;-70
2022/01/18 06:40:51;;;;;;;34.45;16.27;;;4.60;99.90;;;;;;4929343;28;114831;-68
2022/01/18 06:43:17;;;;;;;30.40;16.23;;;4.60;99.90;;;;;;4965273;28;113566;-69
2022/01/18 06:45:43;;;;;;;34.13;16.58;;;4.60;99.90;;;;;;4949629;28;112566;-68
2022/01/18 06:48:09;;;;;;;32.22;15.80;;;4.60;99.90;;;;;;4929905;28;112602;-69
2022/01/18 06:50:35;;;;;;;33.92;15.82;;;4.60;99.90;;;;;;4945740;28;113846;-67
2022/01/18 06:53:01;;;;;;;33.53;16.60;;;4.60;99.90;;;;;;4946364;28;113668;-69
2022/01/18 06:55:27;;;;;;;26.55;14.40;;;4.60;99.90;;;;;;4947172;28;112669;-70
2022/01/18 06:57:53;;;;;;;29.58;15.88;;;4.60;99.90;;;;;;4946646;28;112568;-69
2022/01/18 07:00:20;;;;;;;31.35;16.17;;;4.60;99.90;;;;;;4947128;28;113136;-67
2022/01/18 07:02:46;;;;;;;30.80;15.48;;;4.60;99.90;;;;;;4946608;28;113576;-69
2022/01/18 07:05:11;;;;;;;32.42;15.38;;;4.60;99.90;;;;;;5008122;22;113260;-65
2022/01/18 07:07:38;;;;;;;29.27;15.70;;;4.60;99.90;;;;;;4985486;28;112644;-63
2022/01/18 07:10:05;;;;;;;30.48;16.48;;;4.60;99.90;;;;;;4979293;28;113506;-63
2022/01/18 07:12:34;;;;;;;27.75;16.92;;;4.60;99.90;;;;;;4947939;28;113865;-63
2022/01/18 07:15:03;;;;;;;37.15;16.65;;;4.60;99.90;;;;;;4966322;28;112532;-65
2022/01/18 07:17:29;;;;;;;36.27;15.83;;;4.60;99.90;;;;;;4965365;28;112834;-66
2022/01/18 07:19:55;;;;;;;30.35;17.27;;;4.60;99.90;;;;;;4973948;22;114143;-66
2022/01/18 07:22:20;;;;;;;29.88;16.63;;;4.60;99.90;;;;;;4965040;28;112666;-69
2022/01/18 07:24:47;;;;;;;30.13;15.15;;;4.60;99.90;;;;;;4979022;28;112340;-68
2022/01/18 07:27:15;;;;;;;36.58;16.73;;;4.60;99.90;;;;;;4973507;28;112777;-67
2022/01/18 07:29:42;;;;;;;33.95;15.45;;;4.50;99.90;;;;;;4964812;28;113625;-68
2022/01/18 07:32:10;;;;;;;32.28;15.18;;;4.50;99.90;;;;;;4965226;28;112628;-68
2022/01/18 07:34:41;;;;;;;33.83;16.83;;;4.50;99.90;;;;;;4965826;28;112611;-68
2022/01/18 07:37:07;;;;;;;29.52;15.00;;;4.50;99.90;;;;;;4964953;28;114001;-68
2022/01/18 07:39:33;;;;;;;33.88;15.75;;;4.50;99.90;;;;;;4947849;28;115028;-67
2022/01/18 07:41:59;;;;;;;29.13;15.80;;;4.50;99.90;;;;;;4971937;28;112725;-68
2022/01/18 07:44:25;;;;;;;34.20;15.60;;;4.50;99.90;;;;;;4970318;28;112372;-68
2022/01/18 07:46:51;;;;;;;30.13;16.60;;;4.50;99.90;;;;;;4978033;28;113732;-69
2022/01/18 07:49:17;;;;;;;28.10;15.18;;;4.50;99.90;;;;;;4972924;28;114602;-68
2022/01/18 07:51:42;;;;;;;30.33;17.90;;;4.50;99.90;;;;;;4979690;28;113394;-67
2022/01/18 07:54:10;;;;;;;40.85;19.08;;;4.50;99.90;;;;;;4971611;28;112580;-69
2022/01/18 07:56:39;;;;;;;34.28;18.13;;;4.50;99.90;;;;;;4969535;28;112655;-69
2022/01/18 07:59:05;;;;;;;29.35;16.45;;;4.50;99.90;;;;;;4974471;28;114323;-69
2022/01/18 08:01:30;;;;;;;29.98;16.83;;;4.50;99.90;;;;;;4977090;28;112788;-70
2022/01/18 08:03:56;;;;;;;28.15;14.88;;;4.50;99.90;;;;;;4968815;28;112339;-68
2022/01/18 08:06:22;;;;;;;29.55;15.93;;;4.50;99.90;;;;;;4980430;28;112500;-65
2022/01/18 08:08:48;;;;;;;29.02;16.27;;;4.50;99.90;;;;;;4971648;28;113538;-70
2022/01/18 08:11:15;;;;;;;31.08;17.45;;;4.50;99.90;;;;;;4973018;28;113204;-68
2022/01/18 08:13:44;;;;;;;39.47;17.73;;;4.50;99.90;;;;;;4978652;28;112326;-69
2022/01/18 08:16:23;;;;;;;32.63;17.85;;;4.50;99.90;;;;;;4954286;28;112754;-69
2022/01/18 08:18:50;;;;;;;40.88;18.95;;;4.50;99.90;;;;;;4980722;28;115163;-67
2022/01/18 08:21:16;;;;;;;33.97;16.98;;;4.60;99.90;;;;;;4976803;28;113617;-70
2022/01/18 08:23:46;;;;;;;34.65;18.67;;;4.50;99.90;;;;;;4979135;28;112371;-70
2022/01/18 08:26:12;;;;;;;22.88;13.48;;;4.60;99.90;;;;;;4974965;28;113105;-70
2022/01/18 08:28:38;;;;;;;26.02;14.40;;;4.60;99.90;;;;;;4978055;28;113722;-68
2022/01/18 08:31:05;;;;;;;28.65;15.23;;;4.60;99.90;;;;;;4955767;28;115702;-67
2022/01/18 08:33:32;;;;;;;28.42;15.02;;;4.60;99.90;;;;;;4971182;28;112593;-70
2022/01/18 08:36:01;;;;;;;38.00;14.48;;;4.60;99.90;;;;;;4962779;28;112819;-70
2022/01/18 08:38:27;;;;;;;30.17;15.35;;;4.60;99.90;;;;;;4950893;28;113760;-70
2022/01/18 08:40:54;;;;;;;36.08;16.50;;;4.60;99.90;;;;;;4975127;28;112373;-70
2022/01/18 08:43:21;;;;;;;36.78;16.48;;;4.60;99.90;;;;;;4976367;28;112545;-69
2022/01/18 08:45:47;;;;;;;34.50;16.92;;;4.60;99.90;;;;;;4969472;28;114813;-66
2022/01/18 08:48:13;;;;;;;30.88;15.15;;;4.60;99.90;;;;;;4973445;28;113356;-69
2022/01/18 08:50:40;;;;;;;33.88;17.23;;;4.70;99.90;;;;;;4969212;28;113662;-79
2022/01/18 08:53:06;;;;;;;30.05;17.67;;;4.70;99.90;;;;;;4974142;28;112646;-73
2022/01/18 08:55:34;;;;;;;39.28;18.10;;;4.70;99.90;;;;;;4952965;28;112742;-71
2022/01/18 08:58:03;;;;;;;32.63;16.45;;;4.70;99.90;;;;;;4981596;28;113939;-73
2022/01/18 09:00:30;;;;;;;38.03;17.95;;;4.80;99.90;;;;;;4969171;28;112664;-73
2022/01/18 09:02:57;;;;;;;29.00;16.92;;;4.80;99.90;;;;;;4959329;28;112476;-73
2022/01/18 09:05:24;;;;;;;32.45;17.90;;;4.80;99.90;;;;;;4948651;28;112590;-72
2022/01/18 09:07:51;;;;;;;34.42;17.25;;;4.90;99.90;;;;;;4965413;28;113122;-72
2022/01/18 09:10:17;;;;;;;27.88;15.32;;;4.90;99.90;;;;;;4951713;28;113259;-72
2022/01/18 09:12:43;;;;;;;33.92;17.48;;;4.90;99.90;;;;;;4976623;28;112968;-68
2022/01/18 09:15:10;;;;;;;32.40;18.58;;;4.90;99.90;;;;;;4960218;28;112562;-70
2022/01/18 09:17:38;;;;;;;30.98;17.25;;;4.90;99.90;;;;;;4958674;28;116745;-69
2022/01/18 09:20:06;;;;;;;34.08;20.00;;;5.00;99.90;;;;;;4948657;28;113796;-67
2022/01/18 09:22:38;;;;;;;32.15;19.17;;;5.00;99.90;;;;;;4960789;28;112741;-67
2022/01/18 09:25:08;;;;;;;34.17;18.50;;;5.00;99.90;;;;;;4972401;28;113081;-68
2022/01/18 09:27:34;;;;;;;37.80;19.48;;;5.10;99.90;;;;;;4970223;28;114363;-74
2022/01/18 09:30:00;;;;;;;33.00;18.08;;;5.10;99.90;;;;;;4980838;28;112614;-70
2022/01/18 09:32:26;;;;;;;27.58;16.45;;;5.10;99.90;;;;;;4968325;28;112719;-69
2022/01/18 09:34:52;;;;;;;29.33;14.43;;;5.10;99.90;;;;;;4957918;28;112536;-69
2022/01/18 09:37:18;;;;;;;29.52;15.80;;;5.10;99.90;;;;;;4974787;28;114092;-72
2022/01/18 09:39:45;;;;;;;23.63;14.73;;;5.10;99.90;;;;;;4969267;28;113826;-71
2022/01/18 09:42:12;;;;;;;23.80;13.57;;;5.20;99.90;;;;;;4952090;28;112472;-72
2022/01/18 09:44:39;;;;;;;29.00;14.98;;;5.20;99.90;;;;;;4961525;28;112779;-65
2022/01/18 09:47:05;;;;;;;28.55;15.00;;;5.30;99.90;;;;;;4962735;28;114441;-64
2022/01/18 09:49:35;;;;;;;31.20;15.38;;;5.40;99.90;;;;;;4975002;28;113876;-64
2022/01/18 09:52:01;;;;;;;31.97;16.90;;;5.40;99.90;;;;;;4966887;28;112657;-64
2022/01/18 09:54:27;;;;;;;25.77;14.25;;;5.50;99.90;;;;;;4979308;28;112603;-64
2022/01/18 09:56:53;;;;;;;30.67;16.73;;;5.60;99.90;;;;;;4993719;22;114924;-66
2022/01/18 09:59:19;;;;;;;29.95;15.40;;;5.80;99.90;;;;;;4993107;28;112554;-65
2022/01/18 10:01:45;;;;;;;27.58;15.88;;;5.90;99.90;;;;;;4983723;28;112729;-65
2022/01/18 10:04:25;;;;;;;29.33;15.93;;;6.00;99.90;;;;;;4964870;28;112790;-65
2022/01/18 10:06:54;;;;;;;33.65;16.80;;;6.20;99.90;;;;;;4977317;28;113662;-65
2022/01/18 10:09:21;;;;;;;29.00;15.73;;;6.30;99.90;;;;;;4998066;28;113530;-63
2022/01/18 10:12:05;;;;;;;25.73;14.63;;;6.50;99.90;;;;;;4986557;28;113675;-64
2022/01/18 10:14:33;;;;;;;24.13;14.38;;;6.60;99.90;;;;;;4994235;28;112577;-62
2022/01/18 10:16:59;;;;;;;30.90;14.25;;;6.80;99.90;;;;;;4994777;28;114194;-63
2022/01/18 10:19:40;;;;;;;23.65;13.48;;;6.90;99.90;;;;;;4972726;28;112376;-64
2022/01/18 10:22:08;;;;;;;19.77;12.52;;;7.10;99.90;;;;;;4996945;28;113703;-61
2022/01/18 10:24:33;;;;;;;24.25;13.07;;;7.20;99.90;;;;;;4991658;28;112674;-66
2022/01/18 10:26:59;;;;;;;32.25;15.05;;;7.30;99.90;;;;;;4989199;28;113090;-67
2022/01/18 10:29:30;;;;;;;24.67;12.48;;;7.40;99.90;;;;;;4981768;28;112571;-62
2022/01/18 10:32:11;;;;;;;24.52;13.32;;;7.60;99.90;;;;;;4991190;22;112470;-63
2022/01/18 10:37:04;;;;;;;27.60;16.10;;;7.90;99.90;;;;;;4966679;28;115344;-62
2022/01/18 10:39:52;;;;;;;24.55;13.30;;;8.00;99.90;;;;;;4974613;28;112883;-64
2022/01/18 10:42:31;;;;;;;24.85;13.93;;;8.10;99.90;;;;;;4982337;28;112859;-67
2022/01/18 10:45:03;;;;;;;19.73;11.65;;;8.40;99.90;;;;;;4964443;28;112724;-64
2022/01/18 10:47:30;;;;;;;19.92;10.48;;;8.60;99.90;;;;;;4973072;28;116372;-65
2022/01/18 10:50:05;;;;;;;25.48;12.43;;;8.80;99.90;;;;;;4959976;28;112606;-65
2022/01/18 10:52:30;;;;;;;16.48;9.88;;;9.00;99.90;;;;;;4977034;28;112491;-66
2022/01/18 10:54:58;;;;;;;20.27;11.68;;;9.20;99.90;;;;;;4968165;28;112576;-65
2022/01/18 10:57:36;;;;;;;22.77;13.77;;;9.40;99.90;;;;;;4968919;28;114697;-66
2022/01/18 11:00:21;;;;;;;17.33;9.98;;;9.60;99.90;;;;;;4980332;28;112603;-67
2022/01/18 11:02:52;;;;;;;20.08;10.95;;;9.80;99.90;;;;;;4966685;28;112667;-66
2022/01/18 11:05:25;;;;;;;19.13;10.40;;;9.90;99.90;;;;;;4968650;28;112610;-70
2022/01/18 11:07:52;;;;;;;22.27;11.25;;;10.00;99.90;;;;;;4970077;28;113497;-68
2022/01/18 11:10:22;;;;;;;19.10;10.13;;;10.20;99.90;;;;;;4958182;28;112649;-69
2022/01/18 11:13:02;;;;;;;15.88;9.43;;;10.40;99.90;;;;;;4967635;28;112307;-68
2022/01/18 11:15:28;;;;;;;;;;;10.60;99.90;;;;;;4972027;28;112616;-66
2022/01/18 11:18:01;;;;;;;20.80;8.90;;;10.70;99.90;;;;;;4975691;28;114297;-67
2022/01/18 11:20:31;;;;;;;22.10;9.52;;;10.90;99.90;;;;;;4951154;28;115551;-68
2022/01/18 11:22:57;;;;;;;18.48;10.25;;;11.00;99.90;;;;;;4965489;28;112372;-69
2022/01/18 11:25:23;;;;;;;15.32;9.02;;;11.20;99.90;;;;;;4965801;28;112335;-67
2022/01/18 11:27:56;;;;;;;14.02;8.85;;;11.40;99.90;;;;;;4963402;28;113257;-64
2022/01/18 11:32:54;;;;;;;15.20;8.52;;;11.50;99.90;;;;;;4964605;28;112696;-59
2022/01/18 11:35:40;;;;;;;17.45;9.15;;;11.60;99.90;;;;;;4966249;28;112537;-58
2022/01/18 11:38:15;;;;;;;20.05;9.23;;;11.80;99.90;;;;;;5018775;22;113473;-64
2022/01/18 11:40:44;;;;;;;13.05;7.30;;;12.00;99.90;;;;;;4985043;28;112557;-63
2022/01/18 11:43:13;;;;;;;16.30;8.33;;;12.20;99.90;;;;;;4985363;28;112600;-65
2022/01/18 11:45:44;;;;;;;17.33;8.17;;;12.40;99.90;;;;;;4985849;28;112458;-64
2022/01/18 11:48:28;;;;;;;18.88;7.88;;;12.70;99.90;;;;;;4967025;28;113460;-64
2022/01/18 11:51:08;;;;;;;14.00;7.68;;;13.10;99.90;;;;;;4967076;28;112834;-64
2022/01/18 11:53:45;;;;;;;14.40;8.43;;;13.40;99.90;;;;;;4967647;28;112465;-63
2022/01/18 11:56:14;;;;;;;12.88;8.38;;;13.80;99.90;;;;;;4952366;28;112663;-62
2022/01/18 11:58:42;;;;;;;15.20;8.90;;;14.30;99.90;;;;;;4985147;28;113141;-63
2022/01/18 12:01:10;;;;;;;15.65;8.07;;;14.70;99.90;;;;;;4966779;28;115767;-65
2022/01/18 12:03:44;;;;;;;15.77;8.40;;;15.30;99.90;;;;;;4985113;28;112653;-64
2022/01/18 12:06:10;;;;;;;18.92;9.55;;;15.80;99.90;;;;;;4984779;28;112376;-64
2022/01/18 12:08:44;;;;;;;20.15;10.40;;;16.20;99.90;;;;;;4984951;28;114259;-63
2022/01/18 12:11:11;;;;;;;19.38;9.23;;;16.50;99.70;;;;;;4984249;28;112525;-64
2022/01/18 12:13:44;;;;;;;15.88;9.35;;;16.80;98.90;;;;;;4950129;28;112725;-65
2022/01/18 12:16:26;;;;;;;20.08;9.27;;;16.90;98.00;;;;;;4984743;28;113006;-64
2022/01/18 12:19:05;;;;;;;20.88;9.57;;;17.00;97.10;;;;;;4967175;28;113093;-64
2022/01/18 12:21:34;;;;;;;30.70;16.70;;;17.00;96.90;;;;;;4983741;28;112615;-65
2022/01/18 12:24:20;;;;;;;15.52;8.55;;;17.20;95.90;;;;;;4984677;28;112739;-65
2022/01/18 12:26:49;;;;;;;16.25;8.88;;;17.50;95.20;;;;;;4966645;28;112614;-70
2022/01/18 12:34:33;;;;;;;23.35;9.10;;;19.20;91.50;;;;;;4985096;28;112625;-70
2022/01/18 12:37:28;;;;;;;13.85;8.70;;;19.30;91.50;;;;;;4967567;28;112797;-66
2022/01/18 12:39:54;;;;;;;18.80;9.30;;;19.20;91.30;;;;;;4982920;28;113152;-67
2022/01/18 12:45:05;;;;;;;16.02;8.23;;;19.60;91.50;;;;;;4984657;28;112401;-67
2022/01/18 12:47:35;;;;;;;15.95;8.90;;;20.50;90.00;;;;;;4966645;28;112552;-67
2022/01/18 12:50:01;;;;;;;24.33;8.30;;;21.20;89.70;;;;;;4983731;28;114260;-69
2022/01/18 12:52:48;;;;;;;13.38;7.40;;;21.60;83.30;;;;;;4984519;28;112571;-67
2022/01/18 12:55:31;;;;;;;13.35;6.90;;;21.60;81.40;;;;;;4985008;28;112807;-67
2022/01/18 12:58:03;;;;;;;11.35;6.60;;;22.20;82.90;;;;;;4984209;28;112371;-71
2022/01/18 13:00:29;;;;;;;10.88;6.07;;;22.90;80.50;;;;;;4966998;28;113364;-67
2022/01/18 13:02:59;;;;;;;12.07;6.75;;;23.40;75.90;;;;;;4983113;28;112502;-67
2022/01/18 13:05:40;;;;;;;15.23;8.02;;;23.70;75.60;;;;;;4949961;28;112527;-69
2022/01/18 13:08:07;;;;;;;12.88;7.07;;;24.00;74.40;;;;;;4984419;28;112583;-68
2022/01/18 13:10:39;;;;;;;10.95;6.20;;;24.40;71.20;;;;;;4983844;28;113028;-68
2022/01/18 13:13:06;;;;;;;10.63;6.82;;;24.80;69.70;;;;;;4983888;28;113425;-68
2022/01/18 13:26:42;;;;;;;10.48;5.45;;;25.70;64.60;;;;;;4984564;28;112417;-68
2022/01/18 13:29:18;;;;;;;9.73;6.20;;;25.70;64.30;;;;;;4984036;28;112615;-68
2022/01/18 13:31:47;;;;;;;13.70;8.80;;;25.60;64.20;;;;;;4983940;28;113820;-70
2022/01/18 13:34:16;;;;;;;8.37;5.63;;;25.90;64.10;;;;;;4966602;28;113271;-68
2022/01/18 13:36:55;;;;;;;10.43;5.43;;;25.90;63.60;;;;;;4967311;28;112662;-67
2022/01/18 13:39:39;;;;;;;8.60;5.10;;;26.00;62.90;;;;;;4985016;28;112493;-69
2022/01/18 13:42:06;;;;;;;11.27;5.53;;;25.60;63.10;;;;;;4993808;22;114633;-61
2022/01/18 13:44:32;;;;;;;12.77;9.02;;;25.10;63.60;;;;;;4966035;28;113828;-59
2022/01/18 13:47:17;;;;;;;21.95;9.70;;;24.70;64.30;;;;;;4984203;28;112497;-60
2022/01/18 13:49:43;;;;;;;15.02;9.38;;;24.40;64.90;;;;;;4995391;22;112710;-64
2022/01/18 13:52:12;;;;;;;8.88;6.45;;;24.50;65.20;;;;;;4983406;28;114319;-65
2022/01/18 13:54:56;;;;;;;21.47;12.27;;;24.80;65.00;;;;;;4983899;28;112641;-64
2022/01/18 13:57:23;;;;;;;11.18;5.03;;;25.30;65.10;;;;;;4983395;28;114198;-65
2022/01/18 13:59:51;;;;;;;10.25;5.70;;;25.90;64.40;;;;;;4983539;28;112538;-64
2022/01/18 14:02:23;;;;;;;12.00;6.43;;;26.50;64.20;;;;;;4982224;28;113132;-65
2022/01/18 14:05:09;;;;;;;14.70;9.10;;;27.20;63.30;;;;;;4983435;28;113400;-66